| DS18B20 | SHTC3 | ||||||
|---|---|---|---|---|---|---|---|
| ID | Date d/m/Y & Time | data1 สูง | data2 ต่ำ | data3 นอก | temp pcb | hum pcb | Time |
| 7335 | 30/03/2026 23:35:58 | 29.4  | 29.4  | 28.3  | 29.4  | 72.6  | 23:35 |
| 7334 | 30/03/2026 23:31:14 | 29.4  | 29.4  | 28.3  | 29.2  | 72.5  | 23:31 |
| 7333 | 30/03/2026 23:26:33 | 29.4  | 29.4  | 28.3  | 29.2  | 72.6  | 23:26 |
| 7332 | 30/03/2026 23:21:49 | 29.5  | 29.4  | 28.3  | 29.4  | 72.6  | 23:21 |
| 7331 | 30/03/2026 23:17:07 | 29.5  | 29.4  | 28.3  | 29.4  | 72.5  | 23:17 |
| 7330 | 30/03/2026 23:12:26 | 29.5  | 29.5  | 28.2  | 29.2  | 72.5  | 23:12 |
| 7329 | 30/03/2026 23:07:44 | 29.5  | 29.5  | 28.4  | 29.4  | 72.5  | 23:07 |
| 7328 | 30/03/2026 23:03:02 | 29.6  | 29.5  | 28.3  | 29.4  | 72.5  | 23:03 |
| 7327 | 30/03/2026 22:58:19 | 29.6  | 29.6  | 28.4  | 29.4  | 72.5  | 22:58 |
| 7326 | 30/03/2026 22:53:37 | 29.6  | 29.6  | 28.5  | 29.4  | 72.5  | 22:53 |
| 7325 | 30/03/2026 22:48:55 | 29.6  | 29.6  | 28.5  | 29.6  | 72.6  | 22:48 |
| 7324 | 30/03/2026 22:44:13 | 29.6  | 29.6  | 28.5  | 29.4  | 72.4  | 22:44 |
| 7323 | 30/03/2026 22:39:31 | 29.6  | 29.6  | 28.5  | 29.7  | 72.6  | 22:39 |
| 7322 | 30/03/2026 22:34:49 | 29.6  | 29.6  | 28.6  | 29.4  | 72.4  | 22:34 |
| 7321 | 30/03/2026 22:30:07 | 29.7  | 29.6  | 28.6  | 29.4  | 72.4  | 22:30 |
| 7320 | 30/03/2026 22:25:25 | 29.7  | 29.6  | 28.6  | 29.4  | 72.3  | 22:25 |
| 7319 | 30/03/2026 22:20:43 | 29.7  | 29.6  | 28.7  | 29.6  | 72.4  | 22:20 |
| 7318 | 30/03/2026 22:16:02 | 29.7  | 29.7  | 28.7  | 29.5  | 72.4  | 22:16 |
| 7317 | 30/03/2026 22:11:19 | 29.7  | 29.7  | 28.7  | 29.5  | 72.3  | 22:11 |
| 7316 | 30/03/2026 22:06:38 | 29.7  | 29.7  | 28.7  | 29.6  | 72.5  | 22:06 |
| 7315 | 30/03/2026 22:01:56 | 29.7  | 29.7  | 28.7  | 29.6  | 72.4  | 22:01 |
| 7314 | 30/03/2026 21:57:14 | 29.8  | 29.8  | 28.7  | 29.6  | 72.4  | 21:57 |
| 7313 | 30/03/2026 21:52:32 | 29.8  | 29.8  | 28.7  | 29.4  | 72.3  | 21:52 |
| 7312 | 30/03/2026 21:47:50 | 29.8  | 29.8  | 28.6  | 29.6  | 72.4  | 21:47 |